sensor_id;sensor_type;location;lat;lon;timestamp;P1;durP1;ratioP1;P2;durP2;ratioP2
10705;SDS011;5404;42.656;23.336;2022-07-09T00:00:59;10.80;;;9.80;;
10705;SDS011;5404;42.656;23.336;2022-07-09T00:03:26;11.18;;;10.15;;
10705;SDS011;5404;42.656;23.336;2022-07-09T00:05:51;11.32;;;10.27;;
10705;SDS011;5404;42.656;23.336;2022-07-09T00:08:17;12.43;;;11.23;;
10705;SDS011;5404;42.656;23.336;2022-07-09T00:10:42;13.25;;;11.27;;
10705;SDS011;5404;42.656;23.336;2022-07-09T00:13:08;11.68;;;10.55;;
10705;SDS011;5404;42.656;23.336;2022-07-09T00:15:33;12.18;;;11.13;;
10705;SDS011;5404;42.656;23.336;2022-07-09T00:17:59;12.07;;;11.00;;
10705;SDS011;5404;42.656;23.336;2022-07-09T00:20:24;13.57;;;10.43;;
10705;SDS011;5404;42.656;23.336;2022-07-09T00:22:50;14.18;;;10.85;;
10705;SDS011;5404;42.656;23.336;2022-07-09T00:25:15;12.77;;;11.50;;
10705;SDS011;5404;42.656;23.336;2022-07-09T00:27:41;12.23;;;11.02;;
10705;SDS011;5404;42.656;23.336;2022-07-09T00:30:07;13.43;;;12.02;;
10705;SDS011;5404;42.656;23.336;2022-07-09T00:32:32;12.80;;;11.60;;
10705;SDS011;5404;42.656;23.336;2022-07-09T00:34:58;13.10;;;11.88;;
10705;SDS011;5404;42.656;23.336;2022-07-09T00:37:23;10.73;;;9.57;;
10705;SDS011;5404;42.656;23.336;2022-07-09T00:39:49;9.82;;;8.93;;
10705;SDS011;5404;42.656;23.336;2022-07-09T00:42:15;11.10;;;9.50;;
10705;SDS011;5404;42.656;23.336;2022-07-09T00:44:40;11.30;;;10.25;;
10705;SDS011;5404;42.656;23.336;2022-07-09T00:47:06;10.20;;;9.40;;
10705;SDS011;5404;42.656;23.336;2022-07-09T00:49:34;10.15;;;9.25;;
10705;SDS011;5404;42.656;23.336;2022-07-09T00:52:03;9.50;;;8.60;;
10705;SDS011;5404;42.656;23.336;2022-07-09T00:54:29;8.40;;;7.60;;
10705;SDS011;5404;42.656;23.336;2022-07-09T00:56:55;7.70;;;7.00;;
10705;SDS011;5404;42.656;23.336;2022-07-09T00:59:21;7.45;;;6.75;;
10705;SDS011;5404;42.656;23.336;2022-07-09T01:01:50;7.40;;;6.70;;
10705;SDS011;5404;42.656;23.336;2022-07-09T01:04:16;8.23;;;7.50;;
10705;SDS011;5404;42.656;23.336;2022-07-09T01:06:42;7.47;;;6.88;;
10705;SDS011;5404;42.656;23.336;2022-07-09T01:09:08;8.65;;;7.07;;
10705;SDS011;5404;42.656;23.336;2022-07-09T01:11:35;9.40;;;6.57;;
10705;SDS011;5404;42.656;23.336;2022-07-09T01:14:01;7.35;;;6.68;;
10705;SDS011;5404;42.656;23.336;2022-07-09T01:16:30;7.60;;;6.82;;
10705;SDS011;5404;42.656;23.336;2022-07-09T01:18:57;7.97;;;7.28;;
10705;SDS011;5404;42.656;23.336;2022-07-09T01:21:23;8.15;;;7.45;;
10705;SDS011;5404;42.656;23.336;2022-07-09T01:23:49;8.98;;;8.07;;
10705;SDS011;5404;42.656;23.336;2022-07-09T01:26:14;9.10;;;8.27;;
10705;SDS011;5404;42.656;23.336;2022-07-09T01:28:40;8.63;;;7.82;;
10705;SDS011;5404;42.656;23.336;2022-07-09T01:31:05;8.68;;;7.85;;
10705;SDS011;5404;42.656;23.336;2022-07-09T01:33:31;8.57;;;7.78;;
10705;SDS011;5404;42.656;23.336;2022-07-09T01:35:58;8.07;;;7.47;;
10705;SDS011;5404;42.656;23.336;2022-07-09T01:38:23;7.32;;;6.63;;
10705;SDS011;5404;42.656;23.336;2022-07-09T01:40:49;7.95;;;7.25;;
10705;SDS011;5404;42.656;23.336;2022-07-09T01:43:15;7.75;;;7.15;;
10705;SDS011;5404;42.656;23.336;2022-07-09T01:45:41;7.97;;;7.28;;
10705;SDS011;5404;42.656;23.336;2022-07-09T01:48:06;7.25;;;6.55;;
10705;SDS011;5404;42.656;23.336;2022-07-09T01:50:32;7.05;;;6.32;;
10705;SDS011;5404;42.656;23.336;2022-07-09T01:52:57;7.15;;;6.50;;
10705;SDS011;5404;42.656;23.336;2022-07-09T01:55:23;7.25;;;6.68;;
10705;SDS011;5404;42.656;23.336;2022-07-09T01:57:48;7.55;;;6.85;;
10705;SDS011;5404;42.656;23.336;2022-07-09T02:00:14;6.68;;;6.07;;
10705;SDS011;5404;42.656;23.336;2022-07-09T02:02:39;7.03;;;6.38;;
10705;SDS011;5404;42.656;23.336;2022-07-09T02:05:05;6.47;;;5.97;;
10705;SDS011;5404;42.656;23.336;2022-07-09T02:07:32;6.18;;;5.68;;
10705;SDS011;5404;42.656;23.336;2022-07-09T02:09:57;7.38;;;6.78;;
10705;SDS011;5404;42.656;23.336;2022-07-09T02:12:23;6.90;;;6.30;;
10705;SDS011;5404;42.656;23.336;2022-07-09T02:14:48;7.03;;;6.50;;
10705;SDS011;5404;42.656;23.336;2022-07-09T02:17:14;6.82;;;6.30;;
10705;SDS011;5404;42.656;23.336;2022-07-09T02:19:41;6.55;;;6.05;;
10705;SDS011;5404;42.656;23.336;2022-07-09T02:22:06;6.72;;;6.13;;
10705;SDS011;5404;42.656;23.336;2022-07-09T02:24:32;6.63;;;6.00;;
10705;SDS011;5404;42.656;23.336;2022-07-09T02:26:57;6.15;;;5.72;;
10705;SDS011;5404;42.656;23.336;2022-07-09T02:29:23;6.13;;;5.72;;
10705;SDS011;5404;42.656;23.336;2022-07-09T02:31:49;7.68;;;6.18;;
10705;SDS011;5404;42.656;23.336;2022-07-09T02:34:16;7.20;;;5.45;;
10705;SDS011;5404;42.656;23.336;2022-07-09T02:36:41;7.60;;;5.50;;
10705;SDS011;5404;42.656;23.336;2022-07-09T02:39:08;6.30;;;5.80;;
10705;SDS011;5404;42.656;23.336;2022-07-09T02:41:33;5.78;;;5.38;;
10705;SDS011;5404;42.656;23.336;2022-07-09T02:43:59;5.97;;;5.47;;
10705;SDS011;5404;42.656;23.336;2022-07-09T02:46:25;5.97;;;5.53;;
10705;SDS011;5404;42.656;23.336;2022-07-09T02:48:50;6.03;;;5.53;;
10705;SDS011;5404;42.656;23.336;2022-07-09T02:51:15;6.00;;;5.60;;
10705;SDS011;5404;42.656;23.336;2022-07-09T02:53:41;5.57;;;5.18;;
10705;SDS011;5404;42.656;23.336;2022-07-09T02:56:06;5.75;;;4.90;;
10705;SDS011;5404;42.656;23.336;2022-07-09T02:58:32;5.20;;;4.85;;
10705;SDS011;5404;42.656;23.336;2022-07-09T03:00:57;6.63;;;5.28;;
10705;SDS011;5404;42.656;23.336;2022-07-09T03:03:23;5.10;;;4.70;;
10705;SDS011;5404;42.656;23.336;2022-07-09T03:05:48;5.32;;;4.97;;
10705;SDS011;5404;42.656;23.336;2022-07-09T03:08:14;5.20;;;4.90;;
10705;SDS011;5404;42.656;23.336;2022-07-09T03:10:40;5.45;;;4.95;;
10705;SDS011;5404;42.656;23.336;2022-07-09T03:13:05;5.32;;;4.25;;
10705;SDS011;5404;42.656;23.336;2022-07-09T03:15:31;5.03;;;4.63;;
10705;SDS011;5404;42.656;23.336;2022-07-09T03:17:56;4.80;;;4.35;;
10705;SDS011;5404;42.656;23.336;2022-07-09T03:20:22;6.30;;;4.53;;
10705;SDS011;5404;42.656;23.336;2022-07-09T03:22:47;4.90;;;4.60;;
10705;SDS011;5404;42.656;23.336;2022-07-09T03:25:13;4.97;;;4.68;;
10705;SDS011;5404;42.656;23.336;2022-07-09T03:27:38;5.35;;;4.95;;
10705;SDS011;5404;42.656;23.336;2022-07-09T03:30:04;4.78;;;4.47;;
10705;SDS011;5404;42.656;23.336;2022-07-09T03:32:30;5.60;;;5.20;;
10705;SDS011;5404;42.656;23.336;2022-07-09T03:34:55;4.70;;;4.20;;
10705;SDS011;5404;42.656;23.336;2022-07-09T03:37:21;5.00;;;4.60;;
10705;SDS011;5404;42.656;23.336;2022-07-09T03:39:47;5.40;;;4.80;;
10705;SDS011;5404;42.656;23.336;2022-07-09T03:42:13;4.57;;;4.28;;
10705;SDS011;5404;42.656;23.336;2022-07-09T03:44:39;4.38;;;4.15;;
10705;SDS011;5404;42.656;23.336;2022-07-09T03:47:05;5.25;;;4.95;;
10705;SDS011;5404;42.656;23.336;2022-07-09T03:49:31;5.57;;;4.80;;
10705;SDS011;5404;42.656;23.336;2022-07-09T03:51:57;4.72;;;4.38;;
10705;SDS011;5404;42.656;23.336;2022-07-09T03:54:23;4.75;;;4.45;;
10705;SDS011;5404;42.656;23.336;2022-07-09T03:56:49;4.78;;;4.47;;
10705;SDS011;5404;42.656;23.336;2022-07-09T03:59:14;4.93;;;4.63;;
10705;SDS011;5404;42.656;23.336;2022-07-09T04:01:40;4.78;;;4.38;;
10705;SDS011;5404;42.656;23.336;2022-07-09T04:04:06;5.43;;;4.35;;
10705;SDS011;5404;42.656;23.336;2022-07-09T04:06:31;4.47;;;4.07;;
10705;SDS011;5404;42.656;23.336;2022-07-09T04:08:57;4.97;;;4.68;;
10705;SDS011;5404;42.656;23.336;2022-07-09T04:11:22;5.20;;;4.85;;
10705;SDS011;5404;42.656;23.336;2022-07-09T04:13:48;4.45;;;4.18;;
10705;SDS011;5404;42.656;23.336;2022-07-09T04:16:14;4.78;;;4.47;;
10705;SDS011;5404;42.656;23.336;2022-07-09T04:18:39;4.82;;;4.43;;
10705;SDS011;5404;42.656;23.336;2022-07-09T04:21:08;4.13;;;3.92;;
10705;SDS011;5404;42.656;23.336;2022-07-09T04:23:34;4.93;;;4.63;;
10705;SDS011;5404;42.656;23.336;2022-07-09T04:26:00;3.92;;;3.63;;
10705;SDS011;5404;42.656;23.336;2022-07-09T04:28:25;4.30;;;3.90;;
10705;SDS011;5404;42.656;23.336;2022-07-09T04:30:51;4.38;;;4.07;;
10705;SDS011;5404;42.656;23.336;2022-07-09T04:33:17;5.10;;;4.68;;
10705;SDS011;5404;42.656;23.336;2022-07-09T04:35:43;5.53;;;5.13;;
10705;SDS011;5404;42.656;23.336;2022-07-09T04:38:10;5.15;;;4.68;;
10705;SDS011;5404;42.656;23.336;2022-07-09T04:40:38;4.90;;;4.60;;
10705;SDS011;5404;42.656;23.336;2022-07-09T04:43:04;5.53;;;4.97;;
10705;SDS011;5404;42.656;23.336;2022-07-09T04:45:30;4.97;;;4.68;;
10705;SDS011;5404;42.656;23.336;2022-07-09T04:48:00;5.18;;;4.82;;
10705;SDS011;5404;42.656;23.336;2022-07-09T04:50:26;5.90;;;4.43;;
10705;SDS011;5404;42.656;23.336;2022-07-09T04:52:53;6.55;;;5.20;;
10705;SDS011;5404;42.656;23.336;2022-07-09T04:55:19;4.88;;;4.55;;
10705;SDS011;5404;42.656;23.336;2022-07-09T04:57:44;4.63;;;4.28;;
10705;SDS011;5404;42.656;23.336;2022-07-09T05:00:11;4.80;;;4.50;;
10705;SDS011;5404;42.656;23.336;2022-07-09T05:02:37;5.82;;;4.45;;
10705;SDS011;5404;42.656;23.336;2022-07-09T05:05:03;4.07;;;3.67;;
10705;SDS011;5404;42.656;23.336;2022-07-09T05:07:31;5.00;;;4.70;;
10705;SDS011;5404;42.656;23.336;2022-07-09T05:09:56;5.45;;;5.00;;
10705;SDS011;5404;42.656;23.336;2022-07-09T05:12:22;4.97;;;4.63;;
10705;SDS011;5404;42.656;23.336;2022-07-09T05:14:49;4.55;;;4.20;;
10705;SDS011;5404;42.656;23.336;2022-07-09T05:17:14;5.20;;;4.80;;
10705;SDS011;5404;42.656;23.336;2022-07-09T05:19:42;5.80;;;5.40;;
10705;SDS011;5404;42.656;23.336;2022-07-09T05:22:08;4.90;;;4.38;;
10705;SDS011;5404;42.656;23.336;2022-07-09T05:24:33;4.88;;;4.55;;
10705;SDS011;5404;42.656;23.336;2022-07-09T05:26:59;5.57;;;5.07;;
10705;SDS011;5404;42.656;23.336;2022-07-09T05:29:24;5.47;;;4.97;;
10705;SDS011;5404;42.656;23.336;2022-07-09T05:31:51;4.88;;;4.57;;
10705;SDS011;5404;42.656;23.336;2022-07-09T05:34:17;4.68;;;4.38;;
10705;SDS011;5404;42.656;23.336;2022-07-09T05:36:42;6.47;;;4.55;;
10705;SDS011;5404;42.656;23.336;2022-07-09T05:39:08;4.75;;;4.35;;
10705;SDS011;5404;42.656;23.336;2022-07-09T05:41:33;5.28;;;4.47;;
10705;SDS011;5404;42.656;23.336;2022-07-09T05:43:59;4.45;;;4.05;;
10705;SDS011;5404;42.656;23.336;2022-07-09T05:46:28;4.93;;;3.58;;
10705;SDS011;5404;42.656;23.336;2022-07-09T05:48:54;4.53;;;3.10;;
10705;SDS011;5404;42.656;23.336;2022-07-09T05:51:20;3.63;;;3.42;;
10705;SDS011;5404;42.656;23.336;2022-07-09T05:53:45;3.55;;;2.95;;
10705;SDS011;5404;42.656;23.336;2022-07-09T05:56:11;3.60;;;3.33;;
10705;SDS011;5404;42.656;23.336;2022-07-09T05:58:36;3.10;;;2.90;;
10705;SDS011;5404;42.656;23.336;2022-07-09T06:01:04;3.28;;;3.08;;
10705;SDS011;5404;42.656;23.336;2022-07-09T06:03:30;3.33;;;2.80;;
10705;SDS011;5404;42.656;23.336;2022-07-09T06:05:56;3.00;;;2.80;;
10705;SDS011;5404;42.656;23.336;2022-07-09T06:08:21;3.58;;;3.28;;
10705;SDS011;5404;42.656;23.336;2022-07-09T06:10:48;3.22;;;3.03;;
10705;SDS011;5404;42.656;23.336;2022-07-09T06:13:13;3.33;;;3.13;;
10705;SDS011;5404;42.656;23.336;2022-07-09T06:15:39;3.05;;;2.85;;
10705;SDS011;5404;42.656;23.336;2022-07-09T06:18:04;2.83;;;2.63;;
10705;SDS011;5404;42.656;23.336;2022-07-09T06:20:30;3.47;;;3.28;;
10705;SDS011;5404;42.656;23.336;2022-07-09T06:22:56;3.20;;;3.00;;
10705;SDS011;5404;42.656;23.336;2022-07-09T06:25:22;3.35;;;3.08;;
10705;SDS011;5404;42.656;23.336;2022-07-09T06:27:49;3.70;;;3.20;;
10705;SDS011;5404;42.656;23.336;2022-07-09T06:30:14;4.55;;;3.15;;
10705;SDS011;5404;42.656;23.336;2022-07-09T06:32:40;4.25;;;3.60;;
10705;SDS011;5404;42.656;23.336;2022-07-09T06:35:06;3.53;;;3.33;;
10705;SDS011;5404;42.656;23.336;2022-07-09T06:37:32;4.22;;;3.20;;
10705;SDS011;5404;42.656;23.336;2022-07-09T06:39:57;3.67;;;3.28;;
10705;SDS011;5404;42.656;23.336;2022-07-09T06:42:24;3.90;;;3.60;;
10705;SDS011;5404;42.656;23.336;2022-07-09T06:44:51;2.80;;;2.60;;
10705;SDS011;5404;42.656;23.336;2022-07-09T06:47:16;3.63;;;3.42;;
10705;SDS011;5404;42.656;23.336;2022-07-09T06:49:42;3.88;;;3.42;;
10705;SDS011;5404;42.656;23.336;2022-07-09T06:52:08;3.45;;;3.25;;
10705;SDS011;5404;42.656;23.336;2022-07-09T06:54:34;3.92;;;3.60;;
10705;SDS011;5404;42.656;23.336;2022-07-09T06:57:00;4.15;;;3.60;;
10705;SDS011;5404;42.656;23.336;2022-07-09T06:59:26;4.32;;;3.92;;
10705;SDS011;5404;42.656;23.336;2022-07-09T07:01:51;9.02;;;3.97;;
10705;SDS011;5404;42.656;23.336;2022-07-09T07:04:17;4.03;;;3.72;;
10705;SDS011;5404;42.656;23.336;2022-07-09T07:06:43;4.00;;;3.70;;
10705;SDS011;5404;42.656;23.336;2022-07-09T07:09:11;4.57;;;3.60;;
10705;SDS011;5404;42.656;23.336;2022-07-09T07:11:37;5.40;;;4.80;;
10705;SDS011;5404;42.656;23.336;2022-07-09T07:14:02;4.82;;;4.30;;
10705;SDS011;5404;42.656;23.336;2022-07-09T07:16:31;4.50;;;4.20;;
10705;SDS011;5404;42.656;23.336;2022-07-09T07:18:56;4.40;;;4.10;;
10705;SDS011;5404;42.656;23.336;2022-07-09T07:21:22;4.85;;;4.45;;
10705;SDS011;5404;42.656;23.336;2022-07-09T07:23:47;5.25;;;4.85;;
10705;SDS011;5404;42.656;23.336;2022-07-09T07:26:12;5.07;;;4.35;;
10705;SDS011;5404;42.656;23.336;2022-07-09T07:28:38;5.07;;;4.72;;
10705;SDS011;5404;42.656;23.336;2022-07-09T07:31:03;4.45;;;4.00;;
10705;SDS011;5404;42.656;23.336;2022-07-09T07:33:29;4.15;;;3.85;;
10705;SDS011;5404;42.656;23.336;2022-07-09T07:35:54;3.45;;;3.25;;
10705;SDS011;5404;42.656;23.336;2022-07-09T07:38:20;3.08;;;2.80;;
10705;SDS011;5404;42.656;23.336;2022-07-09T07:40:45;3.90;;;3.60;;
10705;SDS011;5404;42.656;23.336;2022-07-09T07:43:11;3.50;;;3.20;;
10705;SDS011;5404;42.656;23.336;2022-07-09T07:45:37;3.47;;;3.28;;
10705;SDS011;5404;42.656;23.336;2022-07-09T07:48:03;4.10;;;3.80;;
10705;SDS011;5404;42.656;23.336;2022-07-09T07:50:29;4.00;;;3.70;;
10705;SDS011;5404;42.656;23.336;2022-07-09T07:52:55;5.03;;;4.25;;
10705;SDS011;5404;42.656;23.336;2022-07-09T07:55:22;4.13;;;3.80;;
10705;SDS011;5404;42.656;23.336;2022-07-09T07:57:47;4.63;;;4.22;;
10705;SDS011;5404;42.656;23.336;2022-07-09T08:00:13;3.92;;;3.58;;
10705;SDS011;5404;42.656;23.336;2022-07-09T08:02:39;3.78;;;3.58;;
10705;SDS011;5404;42.656;23.336;2022-07-09T08:05:05;4.20;;;3.90;;
10705;SDS011;5404;42.656;23.336;2022-07-09T08:07:31;7.43;;;4.40;;
10705;SDS011;5404;42.656;23.336;2022-07-09T08:09:57;3.80;;;3.60;;
10705;SDS011;5404;42.656;23.336;2022-07-09T08:12:23;4.45;;;4.15;;
10705;SDS011;5404;42.656;23.336;2022-07-09T08:14:48;8.27;;;4.78;;
10705;SDS011;5404;42.656;23.336;2022-07-09T08:17:14;4.68;;;4.30;;
10705;SDS011;5404;42.656;23.336;2022-07-09T08:19:39;7.30;;;5.38;;
10705;SDS011;5404;42.656;23.336;2022-07-09T08:22:04;6.18;;;5.57;;
10705;SDS011;5404;42.656;23.336;2022-07-09T08:24:30;6.22;;;5.70;;
10705;SDS011;5404;42.656;23.336;2022-07-09T08:26:56;8.45;;;4.72;;
10705;SDS011;5404;42.656;23.336;2022-07-09T08:29:23;4.07;;;3.88;;
10705;SDS011;5404;42.656;23.336;2022-07-09T08:31:49;5.22;;;4.70;;
10705;SDS011;5404;42.656;23.336;2022-07-09T08:34:15;4.28;;;3.63;;
10705;SDS011;5404;42.656;23.336;2022-07-09T08:36:41;4.18;;;3.60;;
10705;SDS011;5404;42.656;23.336;2022-07-09T08:39:06;3.50;;;3.30;;
10705;SDS011;5404;42.656;23.336;2022-07-09T08:41:32;4.28;;;2.75;;
10705;SDS011;5404;42.656;23.336;2022-07-09T08:43:57;3.15;;;2.95;;
10705;SDS011;5404;42.656;23.336;2022-07-09T08:46:23;4.53;;;2.75;;
10705;SDS011;5404;42.656;23.336;2022-07-09T08:48:48;3.03;;;2.70;;
10705;SDS011;5404;42.656;23.336;2022-07-09T08:51:14;3.67;;;3.35;;
10705;SDS011;5404;42.656;23.336;2022-07-09T08:53:41;6.00;;;3.05;;
10705;SDS011;5404;42.656;23.336;2022-07-09T08:56:09;6.22;;;3.17;;
10705;SDS011;5404;42.656;23.336;2022-07-09T08:58:37;4.22;;;3.83;;
10705;SDS011;5404;42.656;23.336;2022-07-09T09:01:03;3.53;;;3.22;;
10705;SDS011;5404;42.656;23.336;2022-07-09T09:03:30;5.13;;;4.15;;
10705;SDS011;5404;42.656;23.336;2022-07-09T09:06:03;3.25;;;2.97;;
10705;SDS011;5404;42.656;23.336;2022-07-09T09:08:34;2.95;;;2.75;;
10705;SDS011;5404;42.656;23.336;2022-07-09T09:11:04;3.50;;;3.25;;
10705;SDS011;5404;42.656;23.336;2022-07-09T09:13:31;3.45;;;3.08;;
10705;SDS011;5404;42.656;23.336;2022-07-09T09:16:05;4.00;;;3.60;;
10705;SDS011;5404;42.656;23.336;2022-07-09T09:18:31;3.83;;;3.55;;
10705;SDS011;5404;42.656;23.336;2022-07-09T09:21:03;3.65;;;3.35;;
10705;SDS011;5404;42.656;23.336;2022-07-09T09:23:37;3.53;;;3.33;;
10705;SDS011;5404;42.656;23.336;2022-07-09T09:26:14;8.07;;;4.72;;
10705;SDS011;5404;42.656;23.336;2022-07-09T09:28:58;4.60;;;4.30;;
10705;SDS011;5404;42.656;23.336;2022-07-09T09:31:28;4.38;;;3.88;;
10705;SDS011;5404;42.656;23.336;2022-07-09T09:33:57;5.85;;;3.80;;
10705;SDS011;5404;42.656;23.336;2022-07-09T09:36:36;4.85;;;4.50;;
10705;SDS011;5404;42.656;23.336;2022-07-09T09:41:35;4.68;;;4.32;;
10705;SDS011;5404;42.656;23.336;2022-07-09T09:44:05;5.10;;;4.70;;
10705;SDS011;5404;42.656;23.336;2022-07-09T09:46:38;5.00;;;4.60;;
10705;SDS011;5404;42.656;23.336;2022-07-09T09:49:05;5.68;;;4.55;;
10705;SDS011;5404;42.656;23.336;2022-07-09T09:51:38;4.90;;;4.60;;
10705;SDS011;5404;42.656;23.336;2022-07-09T09:54:10;5.00;;;4.63;;
10705;SDS011;5404;42.656;23.336;2022-07-09T09:56:38;4.78;;;4.38;;
10705;SDS011;5404;42.656;23.336;2022-07-09T09:59:04;5.47;;;5.07;;
10705;SDS011;5404;42.656;23.336;2022-07-09T10:01:30;4.88;;;4.57;;
10705;SDS011;5404;42.656;23.336;2022-07-09T10:03:56;5.15;;;4.65;;
10705;SDS011;5404;42.656;23.336;2022-07-09T10:06:22;5.03;;;4.57;;
10705;SDS011;5404;42.656;23.336;2022-07-09T10:08:50;5.32;;;4.93;;
10705;SDS011;5404;42.656;23.336;2022-07-09T10:11:16;5.80;;;5.30;;
10705;SDS011;5404;42.656;23.336;2022-07-09T10:13:51;5.22;;;4.82;;
10705;SDS011;5404;42.656;23.336;2022-07-09T10:16:37;4.05;;;3.85;;
10705;SDS011;5404;42.656;23.336;2022-07-09T10:19:04;4.80;;;4.50;;
10705;SDS011;5404;42.656;23.336;2022-07-09T10:21:33;4.47;;;4.07;;
10705;SDS011;5404;42.656;23.336;2022-07-09T10:24:03;4.90;;;4.50;;
10705;SDS011;5404;42.656;23.336;2022-07-09T10:29:03;5.03;;;4.72;;
10705;SDS011;5404;42.656;23.336;2022-07-09T10:31:42;4.85;;;4.55;;
10705;SDS011;5404;42.656;23.336;2022-07-09T10:34:08;4.60;;;4.30;;
10705;SDS011;5404;42.656;23.336;2022-07-09T10:37:03;3.90;;;3.70;;
10705;SDS011;5404;42.656;23.336;2022-07-09T10:39:30;4.10;;;3.80;;
10705;SDS011;5404;42.656;23.336;2022-07-09T10:42:03;3.95;;;3.75;;
10705;SDS011;5404;42.656;23.336;2022-07-09T10:44:35;3.85;;;3.55;;
10705;SDS011;5404;42.656;23.336;2022-07-09T10:47:02;4.30;;;4.10;;
10705;SDS011;5404;42.656;23.336;2022-07-09T10:49:29;4.85;;;4.50;;
10705;SDS011;5404;42.656;23.336;2022-07-09T10:51:55;4.00;;;3.80;;
10705;SDS011;5404;42.656;23.336;2022-07-09T10:54:22;3.55;;;3.22;;
10705;SDS011;5404;42.656;23.336;2022-07-09T10:56:49;3.53;;;3.33;;
10705;SDS011;5404;42.656;23.336;2022-07-09T10:59:15;3.92;;;3.53;;
10705;SDS011;5404;42.656;23.336;2022-07-09T11:01:44;3.90;;;3.60;;
10705;SDS011;5404;42.656;23.336;2022-07-09T11:04:10;2.58;;;2.28;;
10705;SDS011;5404;42.656;23.336;2022-07-09T11:06:45;2.45;;;2.25;;
10705;SDS011;5404;42.656;23.336;2022-07-09T11:09:14;1.90;;;1.80;;
10705;SDS011;5404;42.656;23.336;2022-07-09T11:11:43;1.70;;;1.60;;
10705;SDS011;5404;42.656;23.336;2022-07-09T11:14:09;1.67;;;1.63;;
10705;SDS011;5404;42.656;23.336;2022-07-09T11:16:35;1.60;;;1.50;;
10705;SDS011;5404;42.656;23.336;2022-07-09T11:19:34;1.90;;;1.80;;
10705;SDS011;5404;42.656;23.336;2022-07-09T11:22:01;1.90;;;1.70;;
10705;SDS011;5404;42.656;23.336;2022-07-09T11:24:27;4.93;;;1.85;;
10705;SDS011;5404;42.656;23.336;2022-07-09T11:26:54;2.80;;;2.47;;
10705;SDS011;5404;42.656;23.336;2022-07-09T11:29:21;1.80;;;1.70;;
10705;SDS011;5404;42.656;23.336;2022-07-09T11:31:47;1.70;;;1.70;;
10705;SDS011;5404;42.656;23.336;2022-07-09T11:34:14;1.83;;;1.60;;
10705;SDS011;5404;42.656;23.336;2022-07-09T11:36:44;1.60;;;1.50;;
10705;SDS011;5404;42.656;23.336;2022-07-09T11:39:21;2.65;;;2.33;;
10705;SDS011;5404;42.656;23.336;2022-07-09T11:41:48;1.70;;;1.60;;
10705;SDS011;5404;42.656;23.336;2022-07-09T11:44:32;1.15;;;1.15;;
10705;SDS011;5404;42.656;23.336;2022-07-09T11:47:08;6.82;;;2.90;;
10705;SDS011;5404;42.656;23.336;2022-07-09T11:49:36;1.48;;;1.38;;
10705;SDS011;5404;42.656;23.336;2022-07-09T11:54:59;1.65;;;1.20;;
10705;SDS011;5404;42.656;23.336;2022-07-09T11:57:26;1.27;;;0.98;;
10705;SDS011;5404;42.656;23.336;2022-07-09T11:59:53;1.60;;;1.40;;
10705;SDS011;5404;42.656;23.336;2022-07-09T12:02:22;1.10;;;1.05;;
10705;SDS011;5404;42.656;23.336;2022-07-09T12:04:51;2.15;;;1.35;;
10705;SDS011;5404;42.656;23.336;2022-07-09T12:07:17;1.10;;;1.10;;
10705;SDS011;5404;42.656;23.336;2022-07-09T12:09:42;1.52;;;1.42;;
10705;SDS011;5404;42.656;23.336;2022-07-09T12:12:08;1.27;;;1.17;;
10705;SDS011;5404;42.656;23.336;2022-07-09T12:14:33;1.40;;;1.30;;
10705;SDS011;5404;42.656;23.336;2022-07-09T12:16:59;1.75;;;1.38;;
10705;SDS011;5404;42.656;23.336;2022-07-09T12:19:24;1.23;;;1.23;;
10705;SDS011;5404;42.656;23.336;2022-07-09T12:21:49;1.35;;;1.35;;
10705;SDS011;5404;42.656;23.336;2022-07-09T12:24:15;1.38;;;1.30;;
10705;SDS011;5404;42.656;23.336;2022-07-09T12:26:41;1.60;;;1.50;;
10705;SDS011;5404;42.656;23.336;2022-07-09T12:29:06;1.55;;;1.45;;
10705;SDS011;5404;42.656;23.336;2022-07-09T12:31:32;1.42;;;1.05;;
10705;SDS011;5404;42.656;23.336;2022-07-09T12:34:01;1.00;;;1.00;;
10705;SDS011;5404;42.656;23.336;2022-07-09T12:36:27;1.10;;;1.10;;
10705;SDS011;5404;42.656;23.336;2022-07-09T12:38:52;1.52;;;1.42;;
10705;SDS011;5404;42.656;23.336;2022-07-09T12:41:18;1.17;;;1.17;;
10705;SDS011;5404;42.656;23.336;2022-07-09T12:43:43;1.38;;;1.27;;
10705;SDS011;5404;42.656;23.336;2022-07-09T12:46:08;1.15;;;1.15;;
10705;SDS011;5404;42.656;23.336;2022-07-09T12:48:34;2.35;;;1.13;;
10705;SDS011;5404;42.656;23.336;2022-07-09T12:50:59;1.08;;;1.05;;
10705;SDS011;5404;42.656;23.336;2022-07-09T12:53:25;2.53;;;1.25;;
10705;SDS011;5404;42.656;23.336;2022-07-09T12:55:50;4.63;;;1.33;;
10705;SDS011;5404;42.656;23.336;2022-07-09T12:58:16;4.22;;;1.50;;
10705;SDS011;5404;42.656;23.336;2022-07-09T13:00:41;1.13;;;1.13;;
10705;SDS011;5404;42.656;23.336;2022-07-09T13:03:06;1.23;;;1.23;;
10705;SDS011;5404;42.656;23.336;2022-07-09T13:05:32;1.38;;;1.23;;
10705;SDS011;5404;42.656;23.336;2022-07-09T13:07:57;1.40;;;1.30;;
10705;SDS011;5404;42.656;23.336;2022-07-09T13:10:23;0.90;;;0.90;;
10705;SDS011;5404;42.656;23.336;2022-07-09T13:12:49;1.35;;;1.25;;
10705;SDS011;5404;42.656;23.336;2022-07-09T13:15:15;1.35;;;1.33;;
10705;SDS011;5404;42.656;23.336;2022-07-09T13:17:46;1.13;;;1.13;;
10705;SDS011;5404;42.656;23.336;2022-07-09T13:20:15;1.33;;;1.23;;
10705;SDS011;5404;42.656;23.336;2022-07-09T13:22:40;0.98;;;0.98;;
10705;SDS011;5404;42.656;23.336;2022-07-09T13:25:06;1.00;;;1.00;;
10705;SDS011;5404;42.656;23.336;2022-07-09T13:27:32;1.38;;;1.38;;
10705;SDS011;5404;42.656;23.336;2022-07-09T13:29:57;1.85;;;1.73;;
10705;SDS011;5404;42.656;23.336;2022-07-09T13:32:23;1.80;;;1.55;;
10705;SDS011;5404;42.656;23.336;2022-07-09T13:34:51;1.60;;;1.50;;
10705;SDS011;5404;42.656;23.336;2022-07-09T13:37:17;1.30;;;1.30;;
10705;SDS011;5404;42.656;23.336;2022-07-09T13:39:43;4.70;;;1.58;;
10705;SDS011;5404;42.656;23.336;2022-07-09T13:42:08;1.67;;;1.58;;
10705;SDS011;5404;42.656;23.336;2022-07-09T13:44:34;2.95;;;1.70;;
10705;SDS011;5404;42.656;23.336;2022-07-09T13:46:59;2.30;;;2.20;;
10705;SDS011;5404;42.656;23.336;2022-07-09T13:49:25;1.23;;;1.23;;
10705;SDS011;5404;42.656;23.336;2022-07-09T13:51:51;1.27;;;1.20;;
10705;SDS011;5404;42.656;23.336;2022-07-09T13:54:16;1.55;;;1.02;;
10705;SDS011;5404;42.656;23.336;2022-07-09T13:56:42;2.97;;;2.53;;
10705;SDS011;5404;42.656;23.336;2022-07-09T13:59:08;3.05;;;1.65;;
10705;SDS011;5404;42.656;23.336;2022-07-09T14:01:34;1.17;;;1.17;;
10705;SDS011;5404;42.656;23.336;2022-07-09T14:04:00;1.85;;;1.20;;
10705;SDS011;5404;42.656;23.336;2022-07-09T14:06:25;2.22;;;1.20;;
10705;SDS011;5404;42.656;23.336;2022-07-09T14:08:51;1.40;;;1.30;;
10705;SDS011;5404;42.656;23.336;2022-07-09T14:11:17;3.78;;;1.35;;
10705;SDS011;5404;42.656;23.336;2022-07-09T14:13:42;1.52;;;1.42;;
10705;SDS011;5404;42.656;23.336;2022-07-09T14:16:08;1.30;;;1.30;;
10705;SDS011;5404;42.656;23.336;2022-07-09T14:18:34;3.30;;;1.55;;
10705;SDS011;5404;42.656;23.336;2022-07-09T14:20:59;3.47;;;1.60;;
10705;SDS011;5404;42.656;23.336;2022-07-09T14:23:25;1.33;;;1.33;;
10705;SDS011;5404;42.656;23.336;2022-07-09T14:25:51;1.60;;;1.40;;
10705;SDS011;5404;42.656;23.336;2022-07-09T14:28:16;2.40;;;1.42;;
10705;SDS011;5404;42.656;23.336;2022-07-09T14:30:42;1.90;;;1.80;;
10705;SDS011;5404;42.656;23.336;2022-07-09T14:33:07;1.70;;;1.60;;
10705;SDS011;5404;42.656;23.336;2022-07-09T14:35:32;1.27;;;1.17;;
10705;SDS011;5404;42.656;23.336;2022-07-09T14:37:58;1.40;;;1.40;;
10705;SDS011;5404;42.656;23.336;2022-07-09T14:40:24;1.63;;;1.52;;
10705;SDS011;5404;42.656;23.336;2022-07-09T14:42:49;3.05;;;1.90;;
10705;SDS011;5404;42.656;23.336;2022-07-09T14:45:15;1.13;;;1.13;;
10705;SDS011;5404;42.656;23.336;2022-07-09T14:47:40;1.30;;;1.30;;
10705;SDS011;5404;42.656;23.336;2022-07-09T14:50:06;1.40;;;1.30;;